KMMI/MMI METAR and TAF weather

Enter ICAO airport designator
Station Type Date Time Source
KMMI METAR 2020/12/06 00:55 UTC NOAA

KMMI 060055Z AUTO 00000KT 10SM CLR 02/02 A3010 RMK A01


Station Type Date Time Source
KMMI Decoded METAR 2020/12/06 00:55 UTC NOAA

Station name not available
Dec 05, 2020 - 07:55 PM EST / 2020.12.06 0055 UTC
Wind: Calm:0
Visibility: 10 mile(s):0
Sky conditions: clear
Temperature: 35 F (2 C)
Dew Point: 35 F (2 C)
Relative Humidity: 100%
Pressure (altimeter): 30.1 in. Hg (1019 hPa)
ob: KMMI 060055Z AUTO 00000KT 10SM CLR 02/02 A3010 RMK A01
cycle: 1

Station Type Date Time Source
KMMI TAF UTC NOAA

Error!

Example: see airport list